createdAt,value
2022-12-09T00:01:23.803Z,0.47
2022-12-09T00:03:50.512Z,0.46
2022-12-09T00:06:21.775Z,0.45
2022-12-09T00:08:49.077Z,0.45
2022-12-09T00:11:16.988Z,0.45
2022-12-09T00:13:44.161Z,0.42
2022-12-09T00:16:14.122Z,0.36
2022-12-09T00:18:41.902Z,0.31
2022-12-09T00:21:21.319Z,0.28
2022-12-09T00:23:49.505Z,0.25
2022-12-09T00:26:17.804Z,0.23
2022-12-09T00:28:45.097Z,0.21
2022-12-09T00:31:14.296Z,0.18
2022-12-09T00:33:41.496Z,0.12
2022-12-09T00:36:14.444Z,0.08
2022-12-09T00:38:41.931Z,0.02
2022-12-09T00:41:08.918Z,-0.02
2022-12-09T00:43:35.825Z,-0.06
2022-12-09T00:46:02.552Z,-0.10
2022-12-09T00:48:29.467Z,-0.14
2022-12-09T00:50:56.457Z,-0.19
2022-12-09T00:53:23.476Z,-0.25
2022-12-09T00:55:50.156Z,-0.31
2022-12-09T00:58:17.143Z,-0.37
2022-12-09T01:00:44.617Z,-0.42
2022-12-09T01:03:16.194Z,-0.51
2022-12-09T01:05:43.430Z,-0.61
2022-12-09T01:08:11.266Z,-0.70
2022-12-09T01:10:39.376Z,-0.77
2022-12-09T01:13:06.362Z,-0.85
2022-12-09T01:15:33.689Z,-0.93
2022-12-09T01:18:00.338Z,-0.95
2022-12-09T01:20:26.971Z,-0.99
2022-12-09T01:22:53.701Z,-1.04
2022-12-09T01:25:20.385Z,-1.09
2022-12-09T01:27:46.923Z,-1.16
2022-12-09T01:30:14.615Z,-1.22
2022-12-09T01:32:42.208Z,-1.26
2022-12-09T01:35:09.350Z,-1.29
2022-12-09T01:37:37.676Z,-1.33
2022-12-09T01:40:06.934Z,-1.37
2022-12-09T01:42:34.431Z,-1.40
2022-12-09T01:45:28.634Z,-1.41
2022-12-09T01:48:05.650Z,-1.42
2022-12-09T01:50:36.122Z,-1.48
2022-12-09T01:53:03.194Z,-1.53
2022-12-09T01:55:30.011Z,-1.56
2022-12-09T01:57:56.763Z,-1.56
2022-12-09T02:00:23.532Z,-1.55
2022-12-09T02:02:50.763Z,-1.53
2022-12-09T02:05:18.945Z,-1.50
2022-12-09T02:07:45.695Z,-1.51
2022-12-09T02:10:17.494Z,-1.52
2022-12-09T02:12:58.886Z,-1.48
2022-12-09T02:15:40.082Z,-1.43
2022-12-09T02:18:24.787Z,-1.39
2022-12-09T02:21:01.980Z,-1.35
2022-12-09T02:23:39.318Z,-1.35
2022-12-09T02:26:19.651Z,-1.37
2022-12-09T02:29:01.797Z,-1.38
2022-12-09T02:32:06.799Z,-1.41
2022-12-09T02:34:35.812Z,-1.49
2022-12-09T02:37:27.378Z,-1.54
2022-12-09T02:40:02.371Z,-1.59
2022-12-09T02:42:34.992Z,-1.66
2022-12-09T02:45:05.324Z,-1.71
2022-12-09T02:47:36.694Z,-1.78
2022-12-09T02:50:06.283Z,-1.84
2022-12-09T02:52:35.841Z,-1.88
2022-12-09T02:55:07.699Z,-1.88
2022-12-09T02:57:37.217Z,-1.85
2022-12-09T03:00:06.471Z,-1.84
2022-12-09T03:02:42.408Z,-1.81
2022-12-09T03:05:37.145Z,-1.79
2022-12-09T03:08:13.679Z,-1.69
2022-12-09T03:11:02.291Z,-1.60
2022-12-09T03:14:08.137Z,-1.55
2022-12-09T03:16:46.943Z,-1.51
2022-12-09T03:19:32.576Z,-1.48
2022-12-09T03:22:03.415Z,-1.43
2022-12-09T03:24:38.478Z,-1.40
2022-12-09T03:27:09.693Z,-1.38
2022-12-09T03:29:40.783Z,-1.37
2022-12-09T03:32:10.918Z,-1.37
2022-12-09T03:34:42.417Z,-1.37
2022-12-09T03:37:10.499Z,-1.37
2022-12-09T03:39:40.104Z,-1.39
2022-12-09T03:42:16.588Z,-1.44
2022-12-09T03:44:58.475Z,-1.47
2022-12-09T03:47:25.051Z,-1.53
2022-12-09T03:49:51.997Z,-1.56
2022-12-09T03:52:42.037Z,-1.56
2022-12-09T03:55:17.943Z,-1.58
2022-12-09T03:57:47.749Z,-1.58
2022-12-09T04:00:14.939Z,-1.57
2022-12-09T04:02:41.791Z,-1.58
2022-12-09T04:05:08.959Z,-1.58
2022-12-09T04:07:36.065Z,-1.60
2022-12-09T04:10:02.631Z,-1.62
2022-12-09T04:12:29.198Z,-1.66
2022-12-09T04:14:55.728Z,-1.71
2022-12-09T04:17:22.641Z,-1.77
2022-12-09T04:19:49.403Z,-1.85
2022-12-09T04:22:17.003Z,-1.97
2022-12-09T04:24:44.083Z,-2.11
2022-12-09T04:27:11.876Z,-2.22
2022-12-09T04:29:38.436Z,-2.32
2022-12-09T04:32:05.501Z,-2.40
2022-12-09T04:34:34.025Z,-2.47
2022-12-09T04:37:00.980Z,-2.52
2022-12-09T04:39:27.658Z,-2.64
2022-12-09T04:41:54.385Z,-2.77
2022-12-09T04:44:20.876Z,-2.83
2022-12-09T04:46:47.422Z,-2.87
2022-12-09T04:49:14.761Z,-2.89
2022-12-09T04:51:41.624Z,-2.86
2022-12-09T04:54:13.101Z,-2.87
2022-12-09T04:56:40.279Z,-2.94
2022-12-09T04:59:07.255Z,-3.03
2022-12-09T05:01:34.827Z,-3.08
2022-12-09T05:04:02.213Z,-3.13
2022-12-09T05:06:29.473Z,-3.16
2022-12-09T05:08:56.670Z,-3.20
2022-12-09T05:11:23.885Z,-3.24
2022-12-09T05:13:52.658Z,-3.29
2022-12-09T05:16:19.880Z,-3.30
2022-12-09T05:18:48.583Z,-3.30
2022-12-09T05:21:19.397Z,-3.36
2022-12-09T05:23:46.555Z,-3.40
2022-12-09T05:26:16.914Z,-3.43
2022-12-09T05:28:43.853Z,-3.38
2022-12-09T05:31:14.643Z,-3.27
2022-12-09T05:33:42.269Z,-3.17
2022-12-09T05:36:11.238Z,-3.14
2022-12-09T05:38:38.692Z,-3.14
2022-12-09T05:41:05.989Z,-3.16
2022-12-09T05:43:33.963Z,-3.19
2022-12-09T05:46:04.424Z,-3.22
2022-12-09T05:48:31.272Z,-3.23
2022-12-09T05:51:07.299Z,-3.24
2022-12-09T05:53:34.681Z,-3.23
2022-12-09T05:56:02.260Z,-3.25
2022-12-09T05:58:29.574Z,-3.29
2022-12-09T06:00:56.399Z,-3.33
2022-12-09T06:03:24.406Z,-3.40
2022-12-09T06:05:51.389Z,-3.47
2022-12-09T06:08:18.103Z,-3.53
2022-12-09T06:10:44.948Z,-3.51
2022-12-09T06:13:12.222Z,-3.50
2022-12-09T06:15:39.178Z,-3.50
2022-12-09T06:18:06.000Z,-3.49
2022-12-09T06:20:33.086Z,-3.50
2022-12-09T06:23:00.150Z,-3.51
2022-12-09T06:25:26.833Z,-3.53
2022-12-09T06:27:53.918Z,-3.55
2022-12-09T06:30:21.107Z,-3.58
2022-12-09T06:32:48.273Z,-3.62
2022-12-09T06:35:15.698Z,-3.64
2022-12-09T06:37:43.109Z,-3.65
2022-12-09T06:40:10.507Z,-3.63
2022-12-09T06:42:37.615Z,-3.61
2022-12-09T06:45:05.280Z,-3.57
2022-12-09T06:47:33.006Z,-3.55
2022-12-09T06:50:05.889Z,-3.52
2022-12-09T06:52:33.663Z,-3.51
2022-12-09T06:55:00.688Z,-3.51
2022-12-09T06:57:27.464Z,-3.51
2022-12-09T06:59:54.458Z,-3.53
2022-12-09T07:02:21.719Z,-3.54
2022-12-09T07:04:55.460Z,-3.55
2022-12-09T07:07:23.207Z,-3.58
2022-12-09T07:09:49.762Z,-3.61
2022-12-09T07:12:17.722Z,-3.64
2022-12-09T07:14:44.516Z,-3.61
2022-12-09T07:17:20.136Z,-3.56
2022-12-09T07:19:48.285Z,-3.52
2022-12-09T07:22:15.953Z,-3.54
2022-12-09T07:24:43.389Z,-3.53
2022-12-09T07:27:19.332Z,-3.45
2022-12-09T07:29:47.295Z,-3.39
2022-12-09T07:32:14.729Z,-3.37
2022-12-09T07:34:41.579Z,-3.32
2022-12-09T07:37:08.685Z,-3.22
2022-12-09T07:39:35.451Z,-3.09
2022-12-09T07:42:02.254Z,-2.93
2022-12-09T07:44:29.798Z,-2.78
2022-12-09T07:46:57.540Z,-2.69
2022-12-09T07:49:26.491Z,-2.65
2022-12-09T07:51:53.543Z,-2.59
2022-12-09T07:54:21.346Z,-2.44
2022-12-09T07:56:48.797Z,-2.33
2022-12-09T07:59:17.018Z,-2.28
2022-12-09T08:01:44.577Z,-2.24
2022-12-09T08:04:12.177Z,-2.19
2022-12-09T08:06:40.135Z,-2.16
2022-12-09T08:09:10.272Z,-2.11
2022-12-09T08:11:37.566Z,-2.05
2022-12-09T08:14:11.322Z,-1.97
2022-12-09T08:16:39.305Z,-1.90
2022-12-09T08:19:06.232Z,-1.81
2022-12-09T08:21:33.708Z,-1.71
2022-12-09T08:24:03.501Z,-1.64
2022-12-09T08:26:32.285Z,-1.57
2022-12-09T08:29:00.181Z,-1.47
2022-12-09T08:31:28.429Z,-1.34
2022-12-09T08:33:56.193Z,-1.20
2022-12-09T08:36:28.523Z,-1.05
2022-12-09T08:38:58.107Z,-0.86
2022-12-09T08:41:28.150Z,-0.68
2022-12-09T08:43:55.080Z,-0.45
2022-12-09T08:46:21.915Z,-0.20
2022-12-09T08:48:48.926Z,-0.01
2022-12-09T08:51:15.825Z,0.24
2022-12-09T08:53:42.884Z,0.40
2022-12-09T08:56:12.098Z,0.40
2022-12-09T08:58:40.249Z,0.49
2022-12-09T09:01:08.112Z,0.60
2022-12-09T09:03:35.263Z,0.70
2022-12-09T09:06:10.493Z,0.77
2022-12-09T09:08:39.084Z,0.93
2022-12-09T09:11:16.056Z,1.07
2022-12-09T09:13:44.419Z,1.00
2022-12-09T09:16:15.927Z,0.85
2022-12-09T09:18:43.785Z,0.80
2022-12-09T09:21:13.936Z,0.88
2022-12-09T09:23:41.413Z,0.93
2022-12-09T09:26:17.991Z,0.90
2022-12-09T09:28:45.859Z,0.89
2022-12-09T09:31:15.459Z,0.94
2022-12-09T09:33:42.683Z,1.07
2022-12-09T09:36:14.170Z,1.20
2022-12-09T09:38:40.990Z,1.31
2022-12-09T09:41:24.759Z,1.45
2022-12-09T09:43:52.620Z,1.52
2022-12-09T09:46:33.321Z,1.54
2022-12-09T09:49:01.552Z,1.82
2022-12-09T09:51:29.278Z,2.09
2022-12-09T09:53:56.357Z,2.25
2022-12-09T09:56:39.155Z,2.34
2022-12-09T09:59:19.822Z,2.63
2022-12-09T10:02:00.332Z,2.89
2022-12-09T10:04:54.509Z,3.06
2022-12-09T10:07:44.156Z,3.25
2022-12-09T10:10:21.786Z,3.25
2022-12-09T10:13:04.658Z,3.28
2022-12-09T10:15:41.902Z,3.31
2022-12-09T10:18:16.257Z,3.33
2022-12-09T10:20:43.494Z,3.37
2022-12-09T10:23:15.722Z,3.30
2022-12-09T10:25:53.745Z,3.33
2022-12-09T10:28:25.384Z,3.35
2022-12-09T10:30:54.508Z,3.37
2022-12-09T10:33:32.448Z,3.35
2022-12-09T10:35:59.489Z,3.31
2022-12-09T10:38:28.875Z,3.20
2022-12-09T10:41:07.462Z,3.18
2022-12-09T10:43:37.550Z,3.19
2022-12-09T10:46:23.000Z,3.22
2022-12-09T10:48:50.284Z,3.20
2022-12-09T10:51:23.036Z,3.18
2022-12-09T10:53:56.186Z,3.13
2022-12-09T10:56:30.799Z,3.18
2022-12-09T10:59:38.131Z,3.26
2022-12-09T11:02:07.951Z,3.30
2022-12-09T11:04:36.340Z,3.34
2022-12-09T11:07:05.507Z,3.31
2022-12-09T11:09:38.050Z,3.30
2022-12-09T11:12:14.201Z,3.36
2022-12-09T11:14:51.117Z,3.35
2022-12-09T11:17:30.842Z,3.27
2022-12-09T11:20:07.560Z,3.24
2022-12-09T11:22:41.172Z,3.24
2022-12-09T11:25:20.181Z,3.30
2022-12-09T11:28:23.119Z,3.41
2022-12-09T11:31:27.198Z,3.55
2022-12-09T11:33:50.119Z,3.54
2022-12-09T11:36:43.650Z,3.56
2022-12-09T11:39:33.683Z,3.64
2022-12-09T11:42:17.377Z,3.76
2022-12-09T11:45:01.722Z,3.81
2022-12-09T11:48:22.631Z,3.77
2022-12-09T11:50:31.972Z,3.78
2022-12-09T11:53:23.755Z,3.83
2022-12-09T11:55:57.599Z,3.87
2022-12-09T11:58:52.198Z,3.86
2022-12-09T12:01:42.697Z,3.87
2022-12-09T12:04:13.333Z,3.84
2022-12-09T12:06:51.668Z,3.78
2022-12-09T12:09:27.391Z,3.61
2022-12-09T12:12:06.543Z,3.41
2022-12-09T12:14:36.652Z,3.29
2022-12-09T12:17:21.937Z,3.17
2022-12-09T12:19:51.341Z,3.02
2022-12-09T12:22:39.327Z,2.97
2022-12-09T12:25:17.811Z,2.94
2022-12-09T12:28:03.403Z,2.92
2022-12-09T12:30:47.912Z,2.90
2022-12-09T12:36:07.057Z,2.89
2022-12-09T12:39:15.376Z,2.92
2022-12-09T12:42:04.853Z,3.01
2022-12-09T12:44:49.421Z,3.08
2022-12-09T12:47:49.233Z,3.15
2022-12-09T12:50:36.366Z,3.21
2022-12-09T12:53:24.654Z,3.23
2022-12-09T12:56:05.439Z,3.18
2022-12-09T12:58:53.960Z,3.09
2022-12-09T13:01:51.877Z,2.96
2022-12-09T13:04:33.140Z,2.82
2022-12-09T13:07:18.109Z,2.74
2022-12-09T13:09:57.790Z,2.72
2022-12-09T13:12:36.554Z,2.71
2022-12-09T13:15:03.395Z,2.64
2022-12-09T13:17:29.940Z,2.56
2022-12-09T13:20:01.238Z,2.52
2022-12-09T13:22:40.738Z,2.51
2022-12-09T13:25:38.201Z,2.47
2022-12-09T13:29:00.087Z,2.43
2022-12-09T13:31:32.826Z,2.40
2022-12-09T13:34:18.620Z,2.39
2022-12-09T13:36:47.517Z,2.38
2022-12-09T13:39:39.981Z,2.33
2022-12-09T13:42:25.145Z,2.27
2022-12-09T13:45:05.599Z,2.22
2022-12-09T13:47:38.270Z,2.20
2022-12-09T13:50:08.351Z,2.19
2022-12-09T13:52:42.398Z,2.18
2022-12-09T13:55:36.106Z,2.17
2022-12-09T13:58:25.696Z,2.15
2022-12-09T14:01:37.289Z,2.13
2022-12-09T14:04:12.544Z,2.10
2022-12-09T14:06:52.385Z,2.09
2022-12-09T14:09:52.414Z,2.09
2022-12-09T14:12:44.095Z,2.09
2022-12-09T14:15:25.961Z,2.08
2022-12-09T14:17:52.309Z,2.05
2022-12-09T14:20:28.544Z,2.04
2022-12-09T14:23:13.741Z,2.02
2022-12-09T14:25:55.024Z,2.00
2022-12-09T14:28:33.785Z,1.98
2022-12-09T14:31:08.068Z,1.97
2022-12-09T14:33:45.996Z,1.93
2022-12-09T14:36:15.222Z,1.92
2022-12-09T14:39:34.473Z,1.93
2022-12-09T14:42:13.265Z,1.92
2022-12-09T14:45:03.754Z,1.90
2022-12-09T14:47:41.837Z,1.87
2022-12-09T14:50:14.783Z,1.84
2022-12-09T14:52:53.162Z,1.82
2022-12-09T14:55:22.690Z,1.80
2022-12-09T14:57:50.561Z,1.79
2022-12-09T15:00:34.643Z,1.80
2022-12-09T15:03:31.245Z,1.81
2022-12-09T15:06:01.752Z,1.80
2022-12-09T15:08:29.500Z,1.80
2022-12-09T15:10:56.020Z,1.81
2022-12-09T15:13:25.741Z,1.80
2022-12-09T15:15:55.391Z,1.79
2022-12-09T15:18:24.872Z,1.80
2022-12-09T15:20:57.581Z,1.80
2022-12-09T15:23:35.840Z,1.81
2022-12-09T15:26:23.323Z,1.80
2022-12-09T15:28:51.893Z,1.74
2022-12-09T15:31:21.266Z,1.69
2022-12-09T15:33:50.854Z,1.64
2022-12-09T15:36:43.450Z,1.57
2022-12-09T15:39:18.288Z,1.51
2022-12-09T15:41:47.684Z,1.45
2022-12-09T15:44:18.042Z,1.40
2022-12-09T15:46:47.709Z,1.37
2022-12-09T15:49:19.025Z,1.33
2022-12-09T15:51:46.456Z,1.31
2022-12-09T15:54:18.879Z,1.26
2022-12-09T15:56:59.028Z,1.23
2022-12-09T15:59:55.946Z,1.19
2022-12-09T16:02:27.312Z,1.12
2022-12-09T16:04:56.907Z,1.09
2022-12-09T16:07:23.865Z,1.07
2022-12-09T16:10:16.783Z,1.02
2022-12-09T16:12:44.284Z,1.00
2022-12-09T16:15:13.829Z,0.99
2022-12-09T16:17:55.886Z,0.98
2022-12-09T16:20:35.608Z,0.94
2022-12-09T16:23:03.519Z,0.92
2022-12-09T16:25:38.672Z,0.89
2022-12-09T16:28:06.661Z,0.88
2022-12-09T16:30:44.738Z,0.86
2022-12-09T16:33:20.369Z,0.83
2022-12-09T16:36:01.679Z,0.83
2022-12-09T16:38:30.522Z,0.82
2022-12-09T16:40:59.920Z,0.82
2022-12-09T16:43:27.340Z,0.80
2022-12-09T16:46:21.667Z,0.78
2022-12-09T16:48:49.605Z,0.74
2022-12-09T16:51:20.405Z,0.71
2022-12-09T16:53:51.916Z,0.69
2022-12-09T16:56:22.387Z,0.68
2022-12-09T16:58:49.071Z,0.66
2022-12-09T17:01:17.769Z,0.67
2022-12-09T17:03:51.132Z,0.68
2022-12-09T17:06:19.472Z,0.69
2022-12-09T17:08:46.485Z,0.69
2022-12-09T17:11:13.455Z,0.68
2022-12-09T17:13:40.430Z,0.65
2022-12-09T17:16:07.973Z,0.64
2022-12-09T17:18:35.011Z,0.64
2022-12-09T17:21:05.663Z,0.63
2022-12-09T17:23:39.117Z,0.64
2022-12-09T17:26:09.493Z,0.66
2022-12-09T17:28:36.754Z,0.66
2022-12-09T17:31:08.546Z,0.65
2022-12-09T17:33:35.159Z,0.64
2022-12-09T17:36:01.905Z,0.63
2022-12-09T17:38:29.573Z,0.63
2022-12-09T17:40:56.757Z,0.61
2022-12-09T17:43:23.269Z,0.60
2022-12-09T17:45:49.932Z,0.60
2022-12-09T17:48:16.458Z,0.59
2022-12-09T17:50:42.855Z,0.60
2022-12-09T17:53:09.628Z,0.60
2022-12-09T17:55:38.417Z,0.61
2022-12-09T17:58:05.062Z,0.61
2022-12-09T18:00:31.507Z,0.61
2022-12-09T18:02:57.981Z,0.58
2022-12-09T18:05:24.533Z,0.57
2022-12-09T18:07:50.971Z,0.58
2022-12-09T18:10:17.482Z,0.60
2022-12-09T18:12:44.046Z,0.62
2022-12-09T18:15:11.137Z,0.63
2022-12-09T18:17:37.708Z,0.61
2022-12-09T18:20:05.505Z,0.62
2022-12-09T18:22:32.194Z,0.62
2022-12-09T18:24:58.652Z,0.63
2022-12-09T18:27:25.091Z,0.63
2022-12-09T18:29:53.710Z,0.64
2022-12-09T18:32:20.226Z,0.64
2022-12-09T18:34:46.781Z,0.65
2022-12-09T18:37:13.299Z,0.67
2022-12-09T18:39:39.836Z,0.70
2022-12-09T18:42:07.096Z,0.72
2022-12-09T18:44:33.846Z,0.75
2022-12-09T18:47:00.484Z,0.77
2022-12-09T18:49:27.023Z,0.77
2022-12-09T18:51:54.376Z,0.78
2022-12-09T18:54:29.121Z,0.76
2022-12-09T18:56:56.164Z,0.75
2022-12-09T18:59:23.720Z,0.77
2022-12-09T19:01:50.328Z,0.79
2022-12-09T19:04:20.471Z,0.79
2022-12-09T19:06:49.188Z,0.81
2022-12-09T19:09:32.145Z,0.81
2022-12-09T19:12:11.305Z,0.82
2022-12-09T19:14:45.640Z,0.85
2022-12-09T19:17:12.112Z,0.86
2022-12-09T19:19:38.652Z,0.89
2022-12-09T19:22:05.075Z,0.89
2022-12-09T19:24:32.227Z,0.91
2022-12-09T19:26:58.676Z,0.94
2022-12-09T19:29:25.940Z,0.97
2022-12-09T19:31:53.524Z,0.95
2022-12-09T19:34:25.499Z,0.93
2022-12-09T19:36:54.183Z,0.94
2022-12-09T19:39:22.850Z,0.93
2022-12-09T19:41:50.303Z,0.95
2022-12-09T19:44:37.445Z,0.95
2022-12-09T19:47:05.715Z,0.96
2022-12-09T19:49:32.346Z,0.98
2022-12-09T19:51:58.888Z,1.02
2022-12-09T19:54:28.583Z,1.04
2022-12-09T19:56:56.306Z,1.06
2022-12-09T19:59:22.898Z,1.08
2022-12-09T20:01:49.489Z,1.10
2022-12-09T20:04:47.633Z,1.12
2022-12-09T20:07:08.279Z,1.14
2022-12-09T20:09:36.330Z,1.15
2022-12-09T20:12:03.161Z,1.15
2022-12-09T20:14:29.614Z,1.15
2022-12-09T20:16:56.141Z,1.15
2022-12-09T20:19:22.782Z,1.17
2022-12-09T20:21:49.268Z,1.18
2022-12-09T20:24:15.681Z,1.19
2022-12-09T20:26:42.401Z,1.18
2022-12-09T20:29:10.812Z,1.18
2022-12-09T20:31:38.924Z,1.19
2022-12-09T20:34:08.781Z,1.19
2022-12-09T20:36:37.199Z,1.18
2022-12-09T20:39:07.296Z,1.17
2022-12-09T20:41:33.828Z,1.18
2022-12-09T20:44:00.475Z,1.17
2022-12-09T20:46:29.858Z,1.15
2022-12-09T20:48:57.848Z,1.12
2022-12-09T20:51:27.054Z,1.13
2022-12-09T20:53:54.758Z,1.13
2022-12-09T20:56:22.798Z,1.12
2022-12-09T20:58:51.221Z,1.13
2022-12-09T21:01:29.631Z,1.13
2022-12-09T21:03:57.854Z,1.12
2022-12-09T21:06:27.689Z,1.12
2022-12-09T21:08:54.140Z,1.13
2022-12-09T21:11:23.007Z,1.12
2022-12-09T21:13:51.964Z,1.12
2022-12-09T21:16:21.595Z,1.11
2022-12-09T21:18:50.129Z,1.10
2022-12-09T21:21:18.241Z,1.08
2022-12-09T21:23:45.157Z,1.07
2022-12-09T21:26:14.816Z,1.07
2022-12-09T21:28:42.543Z,1.07
2022-12-09T21:31:12.037Z,1.09
2022-12-09T21:33:39.817Z,1.09
2022-12-09T21:36:09.234Z,1.10
2022-12-09T21:38:36.718Z,1.09
2022-12-09T21:41:06.132Z,1.10
2022-12-09T21:43:34.348Z,1.09
2022-12-09T21:46:10.705Z,1.10
2022-12-09T21:48:37.989Z,1.11
2022-12-09T21:51:05.367Z,1.11
2022-12-09T21:53:32.331Z,1.13
2022-12-09T21:56:06.868Z,1.14
2022-12-09T21:58:34.001Z,1.16
2022-12-09T22:01:07.520Z,1.17
2022-12-09T22:03:34.043Z,1.19
2022-12-09T22:06:00.429Z,1.22
2022-12-09T22:08:27.440Z,1.23
2022-12-09T22:10:53.929Z,1.24
2022-12-09T22:13:20.307Z,1.24
2022-12-09T22:15:46.884Z,1.25
2022-12-09T22:18:13.501Z,1.27
2022-12-09T22:21:23.605Z,1.25
2022-12-09T22:23:27.150Z,1.20
2022-12-09T22:25:53.688Z,1.16
2022-12-09T22:28:20.228Z,1.12
2022-12-09T22:30:46.841Z,1.09
2022-12-09T22:33:13.411Z,1.10
2022-12-09T22:35:39.950Z,1.10
2022-12-09T22:38:12.884Z,1.10
2022-12-09T22:40:41.335Z,1.09
2022-12-09T22:43:07.771Z,1.10
2022-12-09T22:45:37.316Z,1.09
2022-12-09T22:48:04.347Z,1.09
2022-12-09T22:50:30.946Z,1.11
2022-12-09T22:52:57.338Z,1.12
2022-12-09T22:55:23.791Z,1.15
2022-12-09T22:57:50.259Z,1.16
2022-12-09T23:00:17.031Z,1.17
2022-12-09T23:02:43.679Z,1.17
2022-12-09T23:05:10.325Z,1.17
2022-12-09T23:07:36.713Z,1.17
2022-12-09T23:10:03.484Z,1.20
2022-12-09T23:12:29.939Z,1.19
2022-12-09T23:14:56.360Z,1.18
2022-12-09T23:17:22.805Z,1.17
2022-12-09T23:19:49.246Z,1.17
2022-12-09T23:22:15.903Z,1.18
2022-12-09T23:24:42.343Z,1.20
2022-12-09T23:27:08.765Z,1.20
2022-12-09T23:29:35.221Z,1.20
2022-12-09T23:32:01.840Z,1.20
2022-12-09T23:34:28.299Z,1.21
2022-12-09T23:36:54.847Z,1.22
2022-12-09T23:39:21.388Z,1.23
2022-12-09T23:41:48.202Z,1.24
2022-12-09T23:44:18.063Z,1.25
2022-12-09T23:46:44.817Z,1.26
2022-12-09T23:49:11.456Z,1.26
2022-12-09T23:51:40.844Z,1.26
2022-12-09T23:54:08.759Z,1.26
2022-12-09T23:56:39.265Z,1.27
2022-12-09T23:59:08.932Z,1.29
